Time;durP1;ratioP1;P1;durP2;ratioP2;P2;SDS_P1;SDS_P2;PMS_P1;PMS_P2;Temp;Humidity;BMP_temperature;BMP_pressure;BME280_temperature;BME280_humidity;BME280_pressure;Samples;Min_cycle;Max_cycle;Signal;HPM_P1;HPM_P2
2024/02/20 00:00:15;;;;;;;16.33;2.30;;;7.50;99.90;;;;;;5062758;28;20048;-68
2024/02/20 00:02:42;;;;;;;21.33;3.17;;;7.50;99.90;;;;;;5062418;28;20017;-69
2024/02/20 00:05:12;;;;;;;19.98;2.53;;;7.50;99.90;;;;;;5063564;28;20119;-69
2024/02/20 00:07:41;;;;;;;19.20;2.70;;;7.50;99.90;;;;;;5060735;28;20021;-69
2024/02/20 00:10:11;;;;;;;15.02;2.25;;;7.40;99.90;;;;;;5061535;28;20112;-71
2024/02/20 00:12:37;;;;;;;18.75;2.33;;;7.40;99.90;;;;;;5061753;28;20394;-71
2024/02/20 00:15:07;;;;;;;19.30;2.78;;;7.40;99.90;;;;;;5062798;28;20033;-69
2024/02/20 00:17:39;;;;;;;24.45;3.25;;;7.40;99.90;;;;;;5062995;28;20025;-69
2024/02/20 00:20:05;;;;;;;29.92;4.43;;;7.40;99.90;;;;;;5062444;28;20024;-68
2024/02/20 00:22:32;;;;;;;30.38;3.60;;;7.40;99.90;;;;;;5060638;28;20025;-70
2024/02/20 00:24:57;;;;;;;42.78;4.20;;;7.40;99.90;;;;;;5061404;28;20055;-68
2024/02/20 00:27:23;;;;;;;36.08;4.15;;;7.40;99.90;;;;;;5062207;28;20030;-73
2024/02/20 00:29:49;;;;;;;33.20;4.78;;;7.40;99.90;;;;;;5062383;28;20043;-68
2024/02/20 00:32:16;;;;;;;41.50;4.15;;;7.30;99.90;;;;;;5059513;28;20029;-68
2024/02/20 00:34:42;;;;;;;38.80;4.93;;;7.30;99.90;;;;;;5062446;28;20075;-71
2024/02/20 00:37:08;;;;;;;33.28;4.45;;;7.30;99.90;;;;;;5060606;28;20044;-67
2024/02/20 00:39:34;;;;;;;38.88;4.28;;;7.40;99.90;;;;;;5061649;28;20100;-68
2024/02/20 00:42:01;;;;;;;39.90;4.88;;;7.40;99.90;;;;;;5062994;28;20029;-71
2024/02/20 00:44:27;;;;;;;44.80;5.60;;;7.40;99.90;;;;;;5062372;28;20024;-70
2024/02/20 00:46:53;;;;;;;36.10;5.30;;;7.40;99.90;;;;;;5062932;28;20057;-71
2024/02/20 00:49:18;;;;;;;45.38;5.18;;;7.40;99.90;;;;;;5062831;28;20017;-71
2024/02/20 00:51:44;;;;;;;47.55;5.03;;;7.30;99.90;;;;;;5062382;28;20028;-68
2024/02/20 00:54:10;;;;;;;48.38;5.20;;;7.30;99.90;;;;;;5062590;28;20120;-72
2024/02/20 00:56:36;;;;;;;40.03;5.05;;;7.30;99.90;;;;;;5062746;28;20024;-70
2024/02/20 00:59:04;;;;;;;45.22;5.22;;;7.30;99.90;;;;;;5062544;28;20016;-70
2024/02/20 01:01:30;;;;;;;33.85;4.45;;;7.40;99.90;;;;;;5061301;28;20021;-70
2024/02/20 01:03:56;;;;;;;32.47;4.72;;;7.40;99.90;;;;;;5057883;28;20029;-68
2024/02/20 01:06:22;;;;;;;39.88;5.15;;;7.30;99.90;;;;;;5060796;28;20081;-70
2024/02/20 01:08:47;;;;;;;46.80;5.07;;;7.30;99.90;;;;;;5062197;28;20550;-72
2024/02/20 01:11:13;;;;;;;50.10;6.32;;;7.30;99.90;;;;;;5062277;28;20033;-72
2024/02/20 01:13:39;;;;;;;43.05;6.22;;;7.40;99.90;;;;;;5061818;28;20064;-72
2024/02/20 01:16:04;;;;;;;34.72;5.20;;;7.30;99.90;;;;;;5061316;28;20062;-70
2024/02/20 01:18:30;;;;;;;49.33;5.30;;;7.30;99.90;;;;;;5061677;28;20029;-71
2024/02/20 01:20:56;;;;;;;41.03;5.47;;;7.30;99.90;;;;;;5061535;28;20081;-69
2024/02/20 01:23:22;;;;;;;36.20;5.55;;;7.20;99.90;;;;;;5061544;28;20386;-71
2024/02/20 01:25:47;;;;;;;30.85;4.60;;;7.30;99.90;;;;;;5060426;28;20065;-70
2024/02/20 01:28:13;;;;;;;41.25;5.18;;;7.30;99.90;;;;;;5061015;28;20017;-72
2024/02/20 01:30:38;;;;;;;45.53;4.45;;;7.30;99.90;;;;;;5062337;28;20065;-68
2024/02/20 01:33:04;;;;;;;40.47;4.90;;;7.20;99.90;;;;;;5061558;28;20049;-69
2024/02/20 01:35:30;;;;;;;38.90;5.47;;;7.20;99.90;;;;;;5060456;28;20036;-69
2024/02/20 01:37:58;;;;;;;41.58;4.68;;;7.20;99.90;;;;;;5062177;28;20059;-70
2024/02/20 01:40:24;;;;;;;32.63;5.47;;;7.20;99.90;;;;;;5061767;28;20025;-71
2024/02/20 01:42:55;;;;;;;32.90;4.50;;;7.20;99.90;;;;;;5062223;28;20085;-70
2024/02/20 01:45:22;;;;;;;49.97;5.32;;;7.20;99.90;;;;;;5061696;28;20029;-70
2024/02/20 01:47:48;;;;;;;41.83;5.50;;;7.20;99.90;;;;;;5062445;28;20485;-70
2024/02/20 01:50:14;;;;;;;50.08;5.50;;;7.20;99.90;;;;;;5062710;28;20025;-68
2024/02/20 01:52:40;;;;;;;46.08;6.90;;;7.20;99.90;;;;;;5065431;28;20036;-72
2024/02/20 01:55:06;;;;;;;45.08;5.25;;;7.20;99.90;;;;;;5066113;28;20104;-69
2024/02/20 01:57:33;;;;;;;48.25;6.38;;;7.20;99.90;;;;;;5066424;28;20061;-71
2024/02/20 01:59:58;;;;;;;50.08;5.57;;;7.20;99.90;;;;;;5065259;28;20017;-70
2024/02/20 02:02:24;;;;;;;46.33;5.68;;;7.20;99.90;;;;;;5065722;28;20041;-69
2024/02/20 02:04:50;;;;;;;50.10;5.93;;;7.20;99.90;;;;;;5065757;28;20084;-69
2024/02/20 02:07:16;;;;;;;51.83;7.45;;;7.20;99.90;;;;;;5064383;28;20029;-70
2024/02/20 02:09:41;;;;;;;51.25;6.45;;;7.20;99.90;;;;;;5065449;28;20044;-70
2024/02/20 02:12:07;;;;;;;49.13;5.90;;;7.20;99.90;;;;;;5065663;28;20036;-70
2024/02/20 02:14:33;;;;;;;55.70;5.80;;;7.20;99.90;;;;;;5064172;28;20043;-69
2024/02/20 02:16:58;;;;;;;50.75;5.53;;;7.20;99.90;;;;;;5065433;28;20043;-70
2024/02/20 02:19:24;;;;;;;43.75;5.07;;;7.20;99.90;;;;;;5065560;28;20021;-69
2024/02/20 02:21:49;;;;;;;41.20;4.47;;;7.20;99.90;;;;;;5064961;28;20029;-69
2024/02/20 02:24:15;;;;;;;67.70;6.38;;;7.20;99.90;;;;;;5064366;28;20979;-70
2024/02/20 02:26:40;;;;;;;53.80;5.50;;;7.20;99.90;;;;;;5065531;28;20025;-72
2024/02/20 02:29:07;;;;;;;52.65;6.28;;;7.20;99.90;;;;;;5064923;28;20036;-68
2024/02/20 02:31:35;;;;;;;52.55;6.25;;;7.20;99.90;;;;;;5064772;28;20021;-70
2024/02/20 02:34:01;;;;;;;48.67;6.28;;;7.20;99.90;;;;;;5062223;28;20042;-71
2024/02/20 02:36:27;;;;;;;56.80;6.38;;;7.20;99.90;;;;;;5063805;28;20028;-69
2024/02/20 02:38:53;;;;;;;61.10;6.40;;;7.20;99.90;;;;;;5065346;28;20368;-69
2024/02/20 02:41:19;;;;;;;53.33;7.15;;;7.20;99.90;;;;;;5065073;28;20021;-70
2024/02/20 02:43:44;;;;;;;59.20;6.57;;;7.20;99.90;;;;;;5063580;28;20021;-69
2024/02/20 02:46:11;;;;;;;69.93;7.20;;;7.20;99.90;;;;;;5065382;28;20025;-71
2024/02/20 02:48:37;;;;;;;56.72;6.85;;;7.20;99.90;;;;;;5064260;28;20128;-72
2024/02/20 02:51:02;;;;;;;62.38;7.38;;;7.20;99.90;;;;;;5065152;28;20013;-70
2024/02/20 02:53:28;;;;;;;52.97;6.93;;;7.20;99.90;;;;;;5064825;28;20095;-69
2024/02/20 02:55:53;;;;;;;62.90;7.57;;;7.20;99.90;;;;;;5064261;28;20025;-69
2024/02/20 02:58:19;;;;;;;46.63;5.93;;;7.20;99.90;;;;;;5063432;28;20112;-70
2024/02/20 03:00:44;;;;;;;53.25;7.78;;;7.20;99.90;;;;;;5063871;28;20144;-72
2024/02/20 03:03:10;;;;;;;58.17;7.05;;;7.20;99.90;;;;;;5063976;28;20108;-69
2024/02/20 03:05:37;;;;;;;60.28;6.03;;;7.20;99.90;;;;;;5063613;28;20067;-69
2024/02/20 03:08:03;;;;;;;58.25;6.82;;;7.20;99.90;;;;;;5064162;28;20088;-70
2024/02/20 03:10:30;;;;;;;52.55;6.53;;;7.20;99.90;;;;;;5064628;28;20017;-71
2024/02/20 03:12:56;;;;;;;58.47;8.18;;;7.20;99.90;;;;;;5063994;28;20064;-70
2024/02/20 03:15:21;;;;;;;47.88;6.40;;;7.20;99.90;;;;;;5062826;28;20021;-69
2024/02/20 03:17:47;;;;;;;49.60;6.45;;;7.20;99.90;;;;;;5064389;28;20024;-70
2024/02/20 03:20:14;;;;;;;47.63;5.97;;;7.20;99.90;;;;;;5064397;28;20090;-70
2024/02/20 03:22:41;;;;;;;51.72;6.32;;;7.20;99.90;;;;;;5064472;28;20021;-71
2024/02/20 03:25:07;;;;;;;56.10;6.50;;;7.20;99.90;;;;;;5062579;28;20420;-71
2024/02/20 03:27:33;;;;;;;54.20;6.93;;;7.20;99.90;;;;;;5064048;28;20020;-69
2024/02/20 03:29:59;;;;;;;73.57;6.28;;;7.20;99.90;;;;;;5063644;28;20017;-68
2024/02/20 03:32:26;;;;;;;72.22;9.50;;;7.30;99.90;;;;;;5063471;28;20052;-70
2024/02/20 03:34:52;;;;;;;63.08;7.05;;;7.20;99.90;;;;;;5061063;28;20028;-69
2024/02/20 03:37:17;;;;;;;52.88;7.00;;;7.20;99.90;;;;;;5063287;28;20397;-68
2024/02/20 03:39:43;;;;;;;55.67;6.85;;;7.20;99.90;;;;;;5063469;28;20017;-69
2024/02/20 03:42:09;;;;;;;72.93;7.75;;;7.20;99.90;;;;;;5063918;28;20032;-69
2024/02/20 03:44:38;;;;;;;59.65;6.93;;;7.10;99.90;;;;;;5063547;28;20046;-68
2024/02/20 03:47:04;;;;;;;52.35;7.20;;;7.10;99.90;;;;;;5063119;28;20025;-69
2024/02/20 03:49:29;;;;;;;55.80;6.78;;;7.20;99.90;;;;;;5063302;28;20033;-69
2024/02/20 03:51:55;;;;;;;61.08;7.05;;;7.20;99.90;;;;;;5063115;28;20551;-70
2024/02/20 03:54:20;;;;;;;67.10;6.57;;;7.20;99.90;;;;;;5061832;28;20037;-68
2024/02/20 03:56:46;;;;;;;75.55;8.23;;;7.20;99.90;;;;;;5063298;28;20021;-70
2024/02/20 03:59:12;;;;;;;53.10;6.32;;;7.20;99.90;;;;;;5063016;28;20041;-69
2024/02/20 04:01:38;;;;;;;67.03;6.88;;;7.20;99.90;;;;;;5062696;28;20029;-68
2024/02/20 04:04:04;;;;;;;59.95;7.03;;;7.20;99.90;;;;;;5062673;28;20021;-70
2024/02/20 04:06:31;;;;;;;48.08;5.85;;;7.20;99.90;;;;;;5059036;28;20036;-71
2024/02/20 04:09:03;;;;;;;63.40;5.85;;;7.20;99.90;;;;;;5061498;28;20057;-69
2024/02/20 04:11:32;;;;;;;63.20;7.50;;;7.20;99.90;;;;;;5062518;28;20107;-70
2024/02/20 04:14:01;;;;;;;64.03;7.97;;;7.10;99.90;;;;;;5061659;28;20040;-69
2024/02/20 04:16:30;;;;;;;56.90;7.03;;;7.20;99.90;;;;;;5060972;28;20100;-67
2024/02/20 04:18:56;;;;;;;65.72;6.93;;;7.10;99.90;;;;;;5061788;28;20017;-69
2024/02/20 04:21:21;;;;;;;69.68;6.78;;;7.20;99.90;;;;;;5062173;28;20021;-70
2024/02/20 04:23:48;;;;;;;43.30;7.43;;;7.20;99.90;;;;;;5062306;28;20024;-69
2024/02/20 04:26:14;;;;;;;62.42;7.15;;;7.20;99.90;;;;;;5061685;28;20017;-70
2024/02/20 04:28:39;;;;;;;59.00;6.55;;;7.20;99.90;;;;;;5062912;28;20019;-70
2024/02/20 04:31:05;;;;;;;67.32;7.82;;;7.20;99.90;;;;;;5062394;28;20070;-71
2024/02/20 04:33:31;;;;;;;72.00;7.88;;;7.10;99.90;;;;;;5060303;28;20119;-67
2024/02/20 04:35:56;;;;;;;61.58;8.48;;;7.10;99.90;;;;;;5060644;28;20057;-70
2024/02/20 04:38:22;;;;;;;68.50;9.07;;;7.10;99.90;;;;;;5062338;28;20119;-67
2024/02/20 04:40:51;;;;;;;66.05;7.95;;;7.20;99.90;;;;;;5062254;28;20029;-68
2024/02/20 04:43:17;;;;;;;65.75;7.43;;;7.10;99.90;;;;;;5062506;28;20036;-69
2024/02/20 04:45:44;;;;;;;61.97;7.55;;;7.10;99.90;;;;;;5062190;28;20025;-67
2024/02/20 04:48:10;;;;;;;69.40;7.97;;;7.10;99.90;;;;;;5061188;28;20029;-68
2024/02/20 04:50:36;;;;;;;63.30;7.55;;;7.10;99.90;;;;;;5062037;28;20025;-68
2024/02/20 04:53:02;;;;;;;64.85;7.28;;;7.10;99.90;;;;;;5061774;28;20050;-68
2024/02/20 04:55:28;;;;;;;77.40;7.85;;;7.10;99.90;;;;;;5060500;28;20463;-69
2024/02/20 04:57:54;;;;;;;64.28;6.95;;;7.10;99.90;;;;;;5061685;28;20021;-67
2024/02/20 05:00:20;;;;;;;64.53;8.48;;;7.00;99.90;;;;;;5061176;28;20131;-66
2024/02/20 05:02:46;;;;;;;65.10;7.18;;;7.00;99.90;;;;;;5060505;28;20039;-68
2024/02/20 05:05:12;;;;;;;73.85;7.47;;;7.00;99.90;;;;;;5060302;28;20029;-68
2024/02/20 05:07:38;;;;;;;67.32;8.23;;;7.10;99.90;;;;;;5059625;28;20051;-68
2024/02/20 05:10:07;;;;;;;72.10;8.98;;;7.10;99.90;;;;;;5062751;28;20032;-67
2024/02/20 05:12:33;;;;;;;70.53;8.57;;;7.10;99.90;;;;;;5061843;28;20037;-66
2024/02/20 05:14:59;;;;;;;75.05;8.45;;;7.10;99.90;;;;;;5061974;28;20043;-67
2024/02/20 05:17:24;;;;;;;85.53;9.27;;;7.00;99.90;;;;;;5062561;28;20895;-66
2024/02/20 05:19:50;;;;;;;71.70;7.90;;;7.00;99.90;;;;;;5062251;28;20035;-70
2024/02/20 05:22:16;;;;;;;69.10;9.15;;;7.00;99.90;;;;;;5061745;28;20040;-67
2024/02/20 05:24:44;;;;;;;65.40;8.10;;;6.90;99.90;;;;;;5061836;28;20121;-68
2024/02/20 05:27:09;;;;;;;69.70;7.68;;;6.90;99.90;;;;;;5062258;28;20024;-68
2024/02/20 05:29:35;;;;;;;69.32;7.15;;;6.90;99.90;;;;;;5062418;28;20028;-70
2024/02/20 05:32:03;;;;;;;68.22;8.15;;;6.90;99.90;;;;;;5062366;28;20017;-69
2024/02/20 05:34:29;;;;;;;65.78;7.40;;;6.80;99.90;;;;;;5061811;28;20071;-67
2024/02/20 05:36:54;;;;;;;67.82;8.10;;;6.80;99.90;;;;;;5058162;28;20021;-68
2024/02/20 05:39:20;;;;;;;77.25;8.85;;;6.90;99.90;;;;;;5060581;28;20027;-68
2024/02/20 05:41:46;;;;;;;63.00;8.15;;;6.80;99.90;;;;;;5061344;28;20195;-68
2024/02/20 05:44:11;;;;;;;57.80;8.50;;;6.70;99.90;;;;;;5062227;28;20396;-67
2024/02/20 05:46:39;;;;;;;69.65;9.48;;;6.80;99.90;;;;;;5062483;28;20025;-67
2024/02/20 05:49:05;;;;;;;82.90;9.45;;;6.70;99.90;;;;;;5060279;28;20035;-69
2024/02/20 05:51:32;;;;;;;68.47;8.30;;;6.70;99.90;;;;;;5060126;28;20410;-68
2024/02/20 05:53:58;;;;;;;71.22;8.13;;;6.80;99.90;;;;;;5058349;28;20061;-68
2024/02/20 05:56:24;;;;;;;58.50;7.80;;;6.90;99.90;;;;;;5060909;28;20025;-67
2024/02/20 05:58:49;;;;;;;61.97;8.00;;;6.90;99.90;;;;;;5061578;28;20097;-67
2024/02/20 06:01:15;;;;;;;74.47;9.43;;;6.70;99.90;;;;;;5060401;28;20045;-68
2024/02/20 06:03:45;;;;;;;65.65;9.32;;;6.70;99.90;;;;;;5060818;28;20075;-69
2024/02/20 06:06:12;;;;;;;68.70;8.75;;;6.70;99.90;;;;;;5059410;28;20032;-68
2024/02/20 06:08:42;;;;;;;64.78;9.00;;;6.70;99.90;;;;;;5059095;28;20049;-67
2024/02/20 06:11:18;;;;;;;89.95;11.60;;;6.70;99.90;;;;;;5059696;28;20029;-67
2024/02/20 06:13:44;;;;;;;67.95;9.40;;;6.60;99.90;;;;;;5058120;28;20056;-70
2024/02/20 06:16:10;;;;;;;69.15;9.38;;;6.60;99.90;;;;;;5060708;28;20048;-68
2024/02/20 06:18:37;;;;;;;66.38;10.15;;;6.60;99.90;;;;;;5060484;28;20029;-69
2024/02/20 06:21:03;;;;;;;56.53;9.07;;;6.50;99.90;;;;;;5054719;28;20175;-68
2024/02/20 06:23:29;;;;;;;59.85;8.93;;;6.60;99.90;;;;;;5058052;28;20025;-67
2024/02/20 06:25:55;;;;;;;75.72;10.07;;;6.60;99.90;;;;;;5059356;28;20056;-67
2024/02/20 06:28:20;;;;;;;54.47;9.73;;;6.60;99.90;;;;;;5060620;28;20032;-67
2024/02/20 06:30:50;;;;;;;60.58;9.75;;;6.60;99.90;;;;;;5060565;28;20040;-67
2024/02/20 06:33:15;;;;;;;64.18;9.23;;;6.60;99.90;;;;;;5061006;28;20033;-68
2024/02/20 06:35:41;;;;;;;67.47;9.80;;;6.60;99.90;;;;;;5064094;28;20031;-67
2024/02/20 06:38:07;;;;;;;60.90;10.45;;;6.50;99.90;;;;;;5063320;28;20021;-67
2024/02/20 06:40:33;;;;;;;60.97;9.77;;;6.50;99.90;;;;;;5061931;28;20025;-67
2024/02/20 06:42:59;;;;;;;59.47;9.88;;;6.50;99.90;;;;;;5061758;28;20032;-68
2024/02/20 06:45:24;;;;;;;76.43;10.00;;;6.50;99.90;;;;;;5059726;28;20063;-67
2024/02/20 06:47:50;;;;;;;72.47;10.43;;;6.40;99.90;;;;;;5063388;28;20025;-68
2024/02/20 06:50:16;;;;;;;62.58;10.45;;;6.50;99.90;;;;;;5063258;28;20043;-67
2024/02/20 06:52:45;;;;;;;57.55;10.38;;;6.50;99.90;;;;;;5063674;28;20094;-69
2024/02/20 06:55:10;;;;;;;72.53;9.88;;;6.40;99.90;;;;;;5064174;28;20052;-68
2024/02/20 06:57:39;;;;;;;70.78;9.77;;;6.40;99.90;;;;;;5062918;28;20021;-67
2024/02/20 07:00:17;;;;;;;57.90;9.55;;;6.50;99.90;;;;;;5064156;28;20049;-68
2024/02/20 07:02:44;;;;;;;55.03;8.77;;;6.40;99.90;;;;;;5063987;28;20032;-66
2024/02/20 07:05:11;;;;;;;72.45;11.25;;;6.40;99.90;;;;;;5064080;28;20025;-68
2024/02/20 07:07:37;;;;;;;65.25;10.27;;;6.50;99.90;;;;;;5063460;28;20044;-69
2024/02/20 07:10:04;;;;;;;64.70;10.43;;;6.40;99.90;;;;;;5060972;28;20035;-68
2024/02/20 07:12:30;;;;;;;61.38;10.55;;;6.50;99.90;;;;;;5062635;28;20054;-67
2024/02/20 07:14:55;;;;;;;78.53;11.95;;;6.60;99.90;;;;;;5061948;28;20104;-69
2024/02/20 07:17:21;;;;;;;58.80;11.10;;;6.60;99.90;;;;;;5063987;28;20024;-67
2024/02/20 07:19:47;;;;;;;54.28;11.20;;;6.60;99.90;;;;;;5062277;28;20053;-69
2024/02/20 07:22:13;;;;;;;75.40;11.57;;;6.60;99.90;;;;;;5063928;28;20025;-68
2024/02/20 07:24:39;;;;;;;72.07;13.18;;;6.60;99.90;;;;;;5063922;28;20618;-68
2024/02/20 07:27:04;;;;;;;78.10;13.40;;;6.60;99.90;;;;;;5063370;28;20029;-67
2024/02/20 07:29:30;;;;;;;60.83;11.93;;;6.70;99.90;;;;;;5062692;28;20491;-68
2024/02/20 07:31:55;;;;;;;61.45;12.00;;;6.80;99.90;;;;;;5058145;28;20024;-68
2024/02/20 07:34:21;;;;;;;58.55;12.38;;;6.60;99.90;;;;;;5059509;28;20164;-69
2024/02/20 07:36:48;;;;;;;67.20;11.88;;;6.70;99.90;;;;;;5060313;28;20075;-68
2024/02/20 07:39:14;;;;;;;68.88;12.88;;;6.80;99.90;;;;;;5061735;28;20044;-68
2024/02/20 07:41:39;;;;;;;61.03;11.13;;;6.90;99.90;;;;;;5060373;28;20059;-68
2024/02/20 07:44:05;;;;;;;58.70;11.57;;;7.10;99.90;;;;;;5060935;28;20024;-69
2024/02/20 07:46:32;;;;;;;65.60;11.43;;;7.10;99.90;;;;;;5061247;28;20028;-68
2024/02/20 07:48:58;;;;;;;63.13;12.48;;;7.30;99.90;;;;;;5063285;28;20024;-66
2024/02/20 07:51:23;;;;;;;56.95;10.93;;;7.30;99.90;;;;;;5063428;28;20033;-67
2024/02/20 07:53:50;;;;;;;48.85;10.95;;;7.40;99.90;;;;;;5061968;28;20059;-68
2024/02/20 07:56:26;;;;;;;48.17;9.70;;;7.40;99.90;;;;;;5063337;28;20028;-67
2024/02/20 07:58:51;;;;;;;57.13;10.25;;;7.50;99.90;;;;;;5063291;28;20351;-66
2024/02/20 08:01:19;;;;;;;48.47;9.65;;;7.70;99.90;;;;;;5061703;28;20028;-68
2024/02/20 08:03:46;;;;;;;52.17;9.07;;;7.80;99.90;;;;;;5062100;28;20054;-67
2024/02/20 08:06:12;;;;;;;60.10;10.13;;;7.90;99.90;;;;;;5062369;28;20111;-68
2024/02/20 08:08:38;;;;;;;51.33;8.35;;;8.10;99.90;;;;;;5060899;28;20049;-68
2024/02/20 08:11:03;;;;;;;53.40;8.30;;;8.10;99.90;;;;;;5061184;28;20039;-67
2024/02/20 08:13:29;;;;;;;55.95;7.95;;;8.30;99.90;;;;;;5061034;28;20037;-68
2024/02/20 08:15:56;;;;;;;39.80;6.55;;;8.50;99.90;;;;;;5060724;28;20028;-68
2024/02/20 08:18:22;;;;;;;37.85;7.05;;;8.60;99.90;;;;;;5062662;28;20029;-66
2024/02/20 08:20:48;;;;;;;36.10;7.20;;;8.60;99.90;;;;;;5062617;28;20035;-68
2024/02/20 08:23:14;;;;;;;49.97;8.13;;;8.60;99.90;;;;;;5060906;28;20060;-68
2024/02/20 08:25:39;;;;;;;37.50;7.18;;;8.50;99.90;;;;;;5059708;28;20033;-67
2024/02/20 08:28:05;;;;;;;45.35;7.53;;;8.40;99.90;;;;;;5060019;28;20038;-70
2024/02/20 08:30:31;;;;;;;44.53;8.05;;;8.40;99.90;;;;;;5059628;28;20111;-68
2024/02/20 08:32:56;;;;;;;39.80;7.70;;;8.40;99.90;;;;;;5060240;28;20041;-68
2024/02/20 08:35:22;;;;;;;36.97;6.80;;;8.20;99.90;;;;;;5060563;28;20029;-68
2024/02/20 08:37:47;;;;;;;35.42;6.90;;;8.10;99.90;;;;;;5061135;28;20614;-66
2024/02/20 08:40:15;;;;;;;43.08;7.88;;;8.10;99.90;;;;;;5062453;28;20025;-68
2024/02/20 08:42:41;;;;;;;44.30;7.30;;;8.00;99.90;;;;;;5062122;28;20132;-70
2024/02/20 08:45:08;;;;;;;41.65;7.72;;;8.00;99.90;;;;;;5057424;28;20042;-69
2024/02/20 08:47:34;;;;;;;50.88;8.23;;;8.00;99.90;;;;;;5058189;28;20028;-70
2024/02/20 08:50:00;;;;;;;45.50;8.23;;;8.00;99.90;;;;;;5058871;28;20045;-67
2024/02/20 08:52:26;;;;;;;49.47;8.25;;;8.00;99.90;;;;;;5060975;28;20032;-68
2024/02/20 08:54:51;;;;;;;42.33;7.82;;;8.10;99.90;;;;;;5059829;28;20137;-69
2024/02/20 08:57:17;;;;;;;40.53;9.00;;;8.00;99.90;;;;;;5060208;28;20163;-66
2024/02/20 08:59:44;;;;;;;31.67;7.88;;;8.00;99.90;;;;;;5061945;28;20032;-68
2024/02/20 09:02:10;;;;;;;47.83;7.60;;;7.90;99.90;;;;;;5062031;28;20024;-68
2024/02/20 09:04:37;;;;;;;41.80;7.53;;;7.90;99.90;;;;;;5060882;28;20029;-69
2024/02/20 09:07:03;;;;;;;39.38;6.70;;;7.90;99.90;;;;;;5059487;28;20063;-68
2024/02/20 09:09:28;;;;;;;42.67;8.05;;;7.80;99.90;;;;;;5061670;28;20041;-67
2024/02/20 09:11:54;;;;;;;43.83;7.65;;;7.80;99.90;;;;;;5061618;28;20021;-66
2024/02/20 09:14:19;;;;;;;39.40;7.05;;;7.80;99.90;;;;;;5059494;28;20048;-68
2024/02/20 09:16:45;;;;;;;43.53;8.15;;;7.80;99.90;;;;;;5058446;28;20119;-67
2024/02/20 09:19:11;;;;;;;49.22;9.00;;;7.90;99.90;;;;;;5057801;28;20040;-69
2024/02/20 09:21:38;;;;;;;49.00;9.18;;;7.90;99.90;;;;;;5057422;28;20029;-68
2024/02/20 09:24:03;;;;;;;36.15;8.77;;;8.00;99.90;;;;;;5054838;28;20059;-67
2024/02/20 09:26:31;;;;;;;47.65;8.73;;;8.00;99.90;;;;;;5058648;28;20041;-67
2024/02/20 09:28:56;;;;;;;32.75;7.38;;;8.10;99.90;;;;;;5058574;28;20084;-68
2024/02/20 09:31:22;;;;;;;42.13;9.00;;;8.20;99.90;;;;;;5060334;28;20079;-69
2024/02/20 09:33:49;;;;;;;46.70;7.82;;;8.20;99.90;;;;;;5059694;28;20060;-68
2024/02/20 09:36:14;;;;;;;40.65;8.00;;;8.20;99.90;;;;;;5059007;28;20052;-68
2024/02/20 09:38:40;;;;;;;41.85;7.93;;;8.30;99.90;;;;;;5060284;28;20032;-68
2024/02/20 09:41:07;;;;;;;51.85;9.60;;;8.30;99.90;;;;;;5061262;28;20029;-69
2024/02/20 09:43:32;;;;;;;36.53;9.13;;;8.40;99.90;;;;;;5061111;28;20473;-68
2024/02/20 09:46:06;;;;;;;49.70;9.00;;;8.40;99.90;;;;;;5054450;28;20025;-68
2024/02/20 09:48:32;;;;;;;53.80;9.98;;;8.40;99.90;;;;;;5049408;28;20336;-69
2024/02/20 09:51:00;;;;;;;49.67;10.10;;;8.40;99.90;;;;;;5058783;28;20494;-67
2024/02/20 09:53:27;;;;;;;50.85;9.77;;;8.50;99.90;;;;;;5054503;28;20409;-70
2024/02/20 09:55:55;;;;;;;52.38;9.48;;;8.50;99.90;;;;;;5056919;28;20033;-68
2024/02/20 09:58:21;;;;;;;46.38;8.77;;;8.50;99.90;;;;;;5059757;28;20025;-68
2024/02/20 10:00:47;;;;;;;49.70;9.30;;;8.50;99.90;;;;;;5061427;28;20056;-68
2024/02/20 10:03:12;;;;;;;59.10;9.90;;;8.50;99.90;;;;;;5060980;28;20195;-68
2024/02/20 10:05:46;;;;;;;54.67;9.25;;;8.50;99.90;;;;;;5058684;28;20031;-68
2024/02/20 10:08:12;;;;;;;;;;;8.50;99.90;;;;;;5060007;28;20059;-68
2024/02/20 10:10:39;;;;;;;58.15;8.48;;;8.50;99.90;;;;;;5064746;28;19951;-67
2024/02/20 10:13:05;;;;;;;55.38;8.75;;;8.50;99.90;;;;;;5061549;28;20084;-67
2024/02/20 10:15:31;;;;;;;39.70;8.50;;;8.60;99.90;;;;;;5063194;28;20048;-67
2024/02/20 10:18:01;;;;;;;50.55;9.13;;;8.70;99.90;;;;;;5063245;28;20029;-67
2024/02/20 10:20:28;;;;;;;62.20;9.45;;;8.80;99.90;;;;;;5062832;28;20048;-68
2024/02/20 10:23:09;;;;;;;36.95;7.20;;;8.80;99.90;;;;;;5063110;28;20021;-66
2024/02/20 10:25:35;;;;;;;44.80;7.90;;;8.90;99.90;;;;;;5064636;28;20028;-69
2024/02/20 10:28:02;;;;;;;49.70;7.85;;;8.90;99.90;;;;;;5064852;28;20473;-68
2024/02/20 10:30:29;;;;;;;44.90;8.95;;;8.90;99.90;;;;;;5060804;28;20768;-68
2024/02/20 10:32:55;;;;;;;41.13;8.27;;;8.90;99.90;;;;;;5063545;28;20037;-68
2024/02/20 10:35:21;;;;;;;42.80;9.50;;;8.90;99.90;;;;;;5064509;28;20032;-67
2024/02/20 10:37:48;;;;;;;50.50;8.25;;;8.90;99.90;;;;;;5063845;28;20027;-68
2024/02/20 10:40:15;;;;;;;52.58;8.85;;;8.90;99.90;;;;;;5064895;28;20020;-69
2024/02/20 10:42:47;;;;;;;49.90;9.02;;;8.90;99.90;;;;;;5063458;28;20124;-69
2024/02/20 10:45:13;;;;;;;43.60;8.80;;;9.00;99.90;;;;;;5061969;28;20033;-68
2024/02/20 10:47:44;;;;;;;50.70;8.68;;;9.00;99.90;;;;;;5062490;28;20053;-69
2024/02/20 10:50:11;;;;;;;47.40;8.98;;;9.10;99.90;;;;;;5061510;28;20025;-70
2024/02/20 10:52:37;;;;;;;48.45;8.90;;;9.10;99.90;;;;;;5063262;28;20021;-69
2024/02/20 10:55:07;;;;;;;49.20;8.80;;;9.10;99.90;;;;;;5062582;28;20027;-69
2024/02/20 10:57:34;;;;;;;46.65;9.00;;;9.30;99.90;;;;;;5064027;28;20032;-68
2024/02/20 11:00:08;;;;;;;48.85;9.27;;;9.40;99.90;;;;;;5062377;28;20024;-68
2024/02/20 11:02:41;;;;;;;30.40;6.88;;;9.50;99.90;;;;;;5063453;28;20085;-70
2024/02/20 11:05:09;;;;;;;42.95;8.63;;;9.50;99.90;;;;;;5062245;28;20036;-70
2024/02/20 11:07:35;;;;;;;40.35;7.72;;;9.60;99.90;;;;;;5061978;28;20025;-70
2024/02/20 11:10:23;;;;;;;46.00;8.70;;;9.50;99.90;;;;;;5061169;28;20039;-68
2024/02/20 11:12:51;;;;;;;44.88;9.23;;;9.60;99.90;;;;;;5062429;28;20398;-69
2024/02/20 11:15:21;;;;;;;44.05;8.05;;;9.60;99.90;;;;;;5063156;28;20025;-69
2024/02/20 11:17:50;;;;;;;37.35;7.43;;;9.60;99.90;;;;;;5060273;28;20453;-70
2024/02/20 11:20:23;;;;;;;41.88;7.38;;;9.60;99.90;;;;;;5059861;28;20124;-70
2024/02/20 11:22:49;;;;;;;44.63;8.45;;;9.60;99.90;;;;;;5052664;28;20086;-70
2024/02/20 11:25:27;;;;;;;34.75;7.90;;;9.70;99.90;;;;;;5059292;28;20032;-70
2024/02/20 11:27:53;;;;;;;36.72;7.22;;;9.80;99.90;;;;;;5058098;28;20029;-69
2024/02/20 11:30:24;;;;;;;44.28;8.00;;;9.80;99.90;;;;;;5062182;28;20452;-69
2024/02/20 11:32:56;;;;;;;42.75;8.90;;;9.90;99.90;;;;;;5060036;28;20044;-69
2024/02/20 11:35:32;;;;;;;51.58;8.40;;;10.00;99.90;;;;;;5060130;28;20060;-69
2024/02/20 11:37:59;;;;;;;45.25;8.50;;;10.20;99.90;;;;;;5062657;28;20361;-68
2024/02/20 11:40:28;;;;;;;33.67;8.88;;;10.30;99.90;;;;;;5062684;28;20017;-69
2024/02/20 11:42:57;;;;;;;42.47;7.78;;;10.40;99.90;;;;;;5062461;28;20029;-68
2024/02/20 11:45:28;;;;;;;37.90;7.35;;;10.50;99.90;;;;;;5061764;28;20025;-68
2024/02/20 11:48:05;;;;;;;32.60;7.32;;;10.50;99.90;;;;;;5058318;28;20416;-69
2024/02/20 11:50:32;;;;;;;35.97;6.78;;;10.50;99.90;;;;;;5062340;28;20037;-70
2024/02/20 11:53:05;;;;;;;34.05;7.25;;;10.50;99.90;;;;;;5059715;28;20040;-67
2024/02/20 11:55:32;;;;;;;43.28;7.15;;;10.40;99.90;;;;;;5060839;28;20037;-69
2024/02/20 11:58:04;;;;;;;37.63;6.60;;;10.40;99.90;;;;;;5059194;28;20029;-68
2024/02/20 12:00:32;;;;;;;29.95;6.38;;;10.40;99.90;;;;;;5060353;28;20040;-69
2024/02/20 12:03:00;;;;;;;47.42;7.10;;;10.60;99.90;;;;;;5062862;28;20076;-70
2024/02/20 12:05:42;;;;;;;38.78;7.57;;;10.70;99.90;;;;;;5062698;28;20021;-68
2024/02/20 12:08:12;;;;;;;38.13;7.28;;;10.90;99.90;;;;;;5062097;28;20516;-69
2024/02/20 12:10:38;;;;;;;34.75;6.95;;;11.00;99.90;;;;;;5061656;28;20040;-68
2024/02/20 12:13:17;;;;;;;36.05;7.72;;;11.00;99.90;;;;;;5059219;28;20045;-69
2024/02/20 12:15:49;;;;;;;34.42;7.47;;;11.10;99.90;;;;;;5060728;28;20036;-69
2024/02/20 12:18:30;;;;;;;35.90;6.15;;;11.20;99.90;;;;;;5062677;28;20032;-72
2024/02/20 12:21:04;;;;;;;29.33;6.43;;;11.20;99.90;;;;;;5060734;28;20033;-73
2024/02/20 12:23:30;;;;;;;34.80;6.68;;;11.20;99.90;;;;;;5060138;28;20033;-72
2024/02/20 12:26:08;;;;;;;28.00;6.43;;;11.20;99.90;;;;;;5061152;28;20098;-71
2024/02/20 12:28:35;;;;;;;30.75;6.05;;;11.20;99.90;;;;;;5061530;28;20036;-69
2024/02/20 12:31:01;;;;;;;28.48;6.32;;;11.20;99.90;;;;;;5061940;28;20021;-70
2024/02/20 12:33:26;;;;;;;28.70;5.22;;;11.20;99.90;;;;;;5061264;28;20047;-69
2024/02/20 12:35:55;;;;;;;31.70;5.75;;;11.20;99.90;;;;;;5061843;28;20029;-71
2024/02/20 12:38:24;;;;;;;39.10;6.45;;;11.20;99.90;;;;;;5061689;28;20021;-71
2024/02/20 12:40:50;;;;;;;35.35;6.47;;;11.10;99.90;;;;;;5061025;28;20075;-70
2024/02/20 12:43:15;;;;;;;40.75;7.25;;;11.10;99.90;;;;;;5060058;28;20029;-70